Meadville, Missouri
Current Conditions -  °F | °C
As of 11:55 PM on Sunday 25 Jan 2015 (Local Time) from KIRK Reporting Station
Overcast Overcast  
Wind Chill: -5°   Ceiling: 1500
Heat Index: -1°   Visibility: 10mi
Dew Point: -3°   Wind: 8mph
Humidity: 85%   Direction: 340°NNW
Pressure: 30.08"   Gusts: NA
Location:  39.78°N, 93.3°W
Report Text: KIRK 260555Z AUTO 34007KT 10SM OVC015 M01/M03 A3008 RMK AO2 SLP197 T10111033 11011 21022 400781022 50004 $
Loading
Personal Weather Stations






























Interactive Weather Map New forecast layout! Learn more

10-Day Weather Forecast

Advertisements
Track Severe Weather on mobile